createdAt,value
2018-07-23T00:02:26.368Z,20.97
2018-07-23T00:04:53.736Z,20.93
2018-07-23T00:07:21.162Z,20.89
2018-07-23T00:09:48.722Z,20.84
2018-07-23T00:12:16.206Z,20.77
2018-07-23T00:14:43.646Z,20.77
2018-07-23T00:17:11.444Z,20.75
2018-07-23T00:19:39.055Z,20.76
2018-07-23T00:22:06.795Z,20.77
2018-07-23T00:24:34.263Z,20.76
2018-07-23T00:27:02.501Z,20.74
2018-07-23T00:29:29.807Z,20.70
2018-07-23T00:31:57.428Z,20.64
2018-07-23T00:34:25.813Z,20.58
2018-07-23T00:36:53.496Z,20.52
2018-07-23T00:39:21.264Z,20.51
2018-07-23T00:41:48.975Z,20.46
2018-07-23T00:44:16.439Z,20.45
2018-07-23T00:46:47.010Z,20.41
2018-07-23T00:49:14.546Z,20.38
2018-07-23T00:51:42.476Z,20.42
2018-07-23T00:54:09.850Z,20.43
2018-07-23T00:56:37.192Z,20.42
2018-07-23T00:59:04.999Z,20.42
2018-07-23T01:01:32.448Z,20.40
2018-07-23T01:04:00.053Z,20.44
2018-07-23T01:06:27.449Z,20.49
2018-07-23T01:08:55.090Z,20.51
2018-07-23T01:11:22.637Z,20.53
2018-07-23T01:13:51.205Z,20.55
2018-07-23T01:16:18.706Z,20.55
2018-07-23T01:18:46.312Z,20.51
2018-07-23T01:21:13.832Z,20.49
2018-07-23T01:23:41.671Z,20.44
2018-07-23T01:26:09.070Z,20.38
2018-07-23T01:28:37.571Z,20.38
2018-07-23T01:31:05.336Z,20.40
2018-07-23T01:33:33.340Z,20.38
2018-07-23T01:36:01.076Z,20.34
2018-07-23T01:38:29.166Z,20.34
2018-07-23T01:40:56.591Z,20.32
2018-07-23T01:43:24.235Z,20.28
2018-07-23T01:45:51.875Z,20.30
2018-07-23T01:48:19.447Z,20.28
2018-07-23T01:50:46.862Z,20.28
2018-07-23T01:53:15.112Z,20.26
2018-07-23T01:55:42.735Z,20.23
2018-07-23T01:58:16.763Z,20.20
2018-07-23T02:00:44.139Z,20.20
2018-07-23T02:03:11.443Z,20.15
2018-07-23T02:05:38.896Z,20.13
2018-07-23T02:08:06.307Z,20.08
2018-07-23T02:10:33.628Z,20.01
2018-07-23T02:13:01.186Z,19.99
2018-07-23T02:15:28.648Z,19.94
2018-07-23T02:17:55.989Z,19.90
2018-07-23T02:20:23.387Z,19.90
2018-07-23T02:22:51.989Z,19.87
2018-07-23T02:25:19.748Z,19.85
2018-07-23T02:27:47.433Z,19.84
2018-07-23T02:30:14.695Z,19.85
2018-07-23T02:32:41.995Z,19.86
2018-07-23T02:35:09.303Z,19.86
2018-07-23T02:37:36.800Z,19.86
2018-07-23T02:40:04.551Z,19.86
2018-07-23T02:42:31.969Z,19.85
2018-07-23T02:44:59.568Z,19.85
2018-07-23T02:47:26.875Z,19.82
2018-07-23T02:49:54.515Z,19.79
2018-07-23T02:52:22.053Z,19.78
2018-07-23T02:54:49.779Z,19.81
2018-07-23T02:57:17.399Z,19.84
2018-07-23T02:59:45.163Z,19.85
2018-07-23T03:02:12.456Z,19.89
2018-07-23T03:04:40.224Z,19.93
2018-07-23T03:07:07.909Z,19.93
2018-07-23T03:09:35.333Z,19.98
2018-07-23T03:12:02.964Z,19.99
2018-07-23T03:14:30.616Z,20.02
2018-07-23T03:16:58.153Z,20.06
2018-07-23T03:19:26.254Z,20.07
2018-07-23T03:21:54.032Z,20.10
2018-07-23T03:24:21.726Z,20.12
2018-07-23T03:26:49.503Z,20.14
2018-07-23T03:29:17.173Z,20.16
2018-07-23T03:31:45.569Z,20.18
2018-07-23T03:34:13.243Z,20.20
2018-07-23T03:36:40.827Z,20.21
2018-07-23T03:39:09.353Z,20.24
2018-07-23T03:41:37.148Z,20.27
2018-07-23T03:44:04.878Z,20.28
2018-07-23T03:46:32.464Z,20.28
2018-07-23T03:49:00.007Z,20.29
2018-07-23T03:51:28.189Z,20.31
2018-07-23T03:53:56.790Z,20.33
2018-07-23T03:56:24.542Z,20.36
2018-07-23T03:58:52.308Z,20.37
2018-07-23T04:01:20.466Z,20.40
2018-07-23T04:03:48.324Z,20.43
2018-07-23T04:06:16.283Z,20.46
2018-07-23T04:08:43.861Z,20.51
2018-07-23T04:11:11.449Z,20.55
2018-07-23T04:13:39.761Z,20.54
2018-07-23T04:16:08.393Z,20.56
2018-07-23T04:18:36.490Z,20.61
2018-07-23T04:21:04.564Z,20.66
2018-07-23T04:23:32.468Z,20.69
2018-07-23T04:26:00.069Z,20.73
2018-07-23T04:28:28.429Z,20.74
2018-07-23T04:30:56.468Z,20.70
2018-07-23T04:33:24.120Z,20.69
2018-07-23T04:35:51.610Z,20.68
2018-07-23T04:38:19.419Z,20.72
2018-07-23T04:40:47.178Z,20.73
2018-07-23T04:43:14.955Z,20.70
2018-07-23T04:45:42.444Z,20.69
2018-07-23T04:48:10.245Z,20.71
2018-07-23T04:50:37.961Z,20.72
2018-07-23T04:53:05.664Z,20.71
2018-07-23T04:55:33.579Z,20.66
2018-07-23T04:58:01.526Z,20.62
2018-07-23T05:00:29.549Z,20.60
2018-07-23T05:02:57.690Z,20.61
2018-07-23T05:05:25.734Z,20.59
2018-07-23T05:07:53.745Z,20.57
2018-07-23T05:12:50.717Z,20.59
2018-07-23T05:15:19.307Z,20.65
2018-07-23T05:17:48.639Z,20.69
2018-07-23T05:20:17.687Z,20.80
2018-07-23T05:22:46.711Z,20.90
2018-07-23T05:25:15.472Z,20.99
2018-07-23T05:27:44.510Z,21.07
2018-07-23T05:30:13.291Z,21.13
2018-07-23T05:32:41.920Z,21.22
2018-07-23T05:35:10.667Z,21.27
2018-07-23T05:37:40.240Z,21.34
2018-07-23T05:40:08.968Z,21.33
2018-07-23T05:42:38.165Z,21.31
2018-07-23T05:45:06.998Z,21.31
2018-07-23T05:47:37.009Z,21.29
2018-07-23T05:50:06.532Z,21.34
2018-07-23T05:52:35.312Z,21.45
2018-07-23T05:55:04.022Z,21.53
2018-07-23T05:57:32.614Z,21.63
2018-07-23T06:00:01.443Z,21.66
2018-07-23T06:02:30.117Z,21.60
2018-07-23T06:04:59.208Z,21.54
2018-07-23T06:07:27.752Z,21.61
2018-07-23T06:09:56.998Z,21.77
2018-07-23T06:12:26.086Z,21.98
2018-07-23T06:14:54.975Z,22.04
2018-07-23T06:17:23.810Z,22.17
2018-07-23T06:19:52.427Z,22.28
2018-07-23T06:22:21.332Z,22.36
2018-07-23T06:24:50.640Z,22.34
2018-07-23T06:27:19.495Z,22.33
2018-07-23T06:29:49.147Z,22.36
2018-07-23T06:32:18.396Z,22.41
2018-07-23T06:34:47.168Z,22.48
2018-07-23T06:37:15.997Z,22.55
2018-07-23T06:39:45.680Z,22.65
2018-07-23T06:42:14.847Z,22.73
2018-07-23T06:44:43.949Z,22.74
2018-07-23T06:47:12.911Z,22.74
2018-07-23T06:49:42.009Z,22.71
2018-07-23T06:52:10.627Z,22.66
2018-07-23T06:54:40.055Z,22.69
2018-07-23T06:57:08.891Z,22.72
2018-07-23T06:59:37.902Z,22.80
2018-07-23T07:02:07.373Z,22.81
2018-07-23T07:04:36.503Z,22.84
2018-07-23T07:07:05.932Z,22.90
2018-07-23T07:09:34.676Z,22.97
2018-07-23T07:12:04.414Z,22.98
2018-07-23T07:14:33.332Z,23.03
2018-07-23T07:17:02.006Z,23.10
2018-07-23T07:19:30.792Z,23.12
2018-07-23T07:22:00.194Z,23.08
2018-07-23T07:24:29.413Z,23.06
2018-07-23T07:26:58.135Z,23.12
2018-07-23T07:29:26.965Z,23.15
2018-07-23T07:31:55.922Z,23.15
2018-07-23T07:34:24.918Z,23.20
2018-07-23T07:36:54.098Z,23.24
2018-07-23T07:39:24.008Z,23.33
2018-07-23T07:41:52.880Z,23.40
2018-07-23T07:44:21.911Z,23.47
2018-07-23T07:46:51.258Z,23.53
2018-07-23T07:49:20.038Z,23.59
2018-07-23T07:51:48.922Z,23.58
2018-07-23T07:54:17.588Z,23.64
2018-07-23T07:56:46.697Z,23.72
2018-07-23T07:59:19.926Z,23.75
2018-07-23T08:01:48.975Z,23.83
2018-07-23T08:04:17.592Z,23.97
2018-07-23T08:06:46.172Z,24.09
2018-07-23T08:09:19.611Z,24.14
2018-07-23T08:11:48.697Z,24.20
2018-07-23T08:14:17.498Z,24.25
2018-07-23T08:16:46.291Z,24.31
2018-07-23T08:19:14.852Z,24.34
2018-07-23T08:21:43.609Z,24.39
2018-07-23T08:24:12.464Z,24.36
2018-07-23T08:26:41.161Z,24.37
2018-07-23T08:29:10.024Z,24.38
2018-07-23T08:31:38.682Z,24.35
2018-07-23T08:34:11.738Z,24.41
2018-07-23T08:36:40.550Z,24.51
2018-07-23T08:39:11.268Z,24.67
2018-07-23T08:41:40.058Z,24.87
2018-07-23T08:44:09.870Z,25.08
2018-07-23T08:46:38.485Z,25.23
2018-07-23T08:49:07.264Z,25.35
2018-07-23T08:51:36.141Z,25.52
2018-07-23T08:54:05.200Z,25.59
2018-07-23T08:56:34.108Z,25.71
2018-07-23T08:59:03.780Z,25.68
2018-07-23T09:01:32.564Z,25.76
2018-07-23T09:04:01.576Z,25.75
2018-07-23T09:06:30.392Z,25.84
2018-07-23T09:08:59.431Z,25.90
2018-07-23T09:11:28.195Z,25.92
2018-07-23T09:13:56.831Z,25.97
2018-07-23T09:16:25.755Z,25.95
2018-07-23T09:18:54.523Z,25.88
2018-07-23T09:21:23.309Z,25.77
2018-07-23T09:23:52.180Z,25.79
2018-07-23T09:26:20.923Z,25.87
2018-07-23T09:28:49.621Z,25.83
2018-07-23T09:31:23.552Z,25.94
2018-07-23T09:33:52.414Z,26.09
2018-07-23T09:36:21.005Z,26.15
2018-07-23T09:38:50.110Z,26.14
2018-07-23T09:41:18.816Z,26.25
2018-07-23T09:43:48.534Z,26.35
2018-07-23T09:46:17.290Z,26.47
2018-07-23T09:48:45.923Z,26.64
2018-07-23T09:51:14.770Z,26.75
2018-07-23T09:53:43.531Z,26.90
2018-07-23T09:56:12.666Z,26.98
2018-07-23T09:58:41.783Z,27.07
2018-07-23T10:01:11.969Z,27.06
2018-07-23T10:03:41.956Z,27.09
2018-07-23T10:06:11.310Z,27.31
2018-07-23T10:08:40.249Z,27.54
2018-07-23T10:11:09.081Z,27.68
2018-07-23T10:13:38.290Z,27.50
2018-07-23T10:16:07.583Z,27.65
2018-07-23T10:18:36.292Z,27.81
2018-07-23T10:21:05.292Z,28.16
2018-07-23T10:23:34.620Z,28.43
2018-07-23T10:26:03.398Z,28.45
2018-07-23T10:28:32.784Z,28.37
2018-07-23T10:31:01.833Z,28.29
2018-07-23T10:33:31.069Z,28.22
2018-07-23T10:35:59.880Z,28.21
2018-07-23T10:38:28.667Z,28.24
2018-07-23T10:40:57.893Z,28.23
2018-07-23T10:43:27.329Z,28.14
2018-07-23T10:45:56.886Z,28.17
2018-07-23T10:48:25.895Z,28.18
2018-07-23T10:50:54.556Z,28.28
2018-07-23T10:53:24.525Z,28.40
2018-07-23T10:55:54.747Z,28.33
2018-07-23T10:58:23.941Z,28.22
2018-07-23T11:00:52.991Z,28.18
2018-07-23T11:03:21.859Z,28.18
2018-07-23T11:05:50.688Z,28.18
2018-07-23T11:08:19.629Z,28.28
2018-07-23T11:10:49.098Z,28.65
2018-07-23T11:13:17.981Z,29.22
2018-07-23T11:15:46.790Z,29.42
2018-07-23T11:18:15.980Z,29.34
2018-07-23T11:20:45.172Z,29.25
2018-07-23T11:23:14.518Z,29.16
2018-07-23T11:25:43.362Z,29.10
2018-07-23T11:28:12.549Z,29.34
2018-07-23T11:30:41.630Z,29.50
2018-07-23T11:33:10.433Z,29.28
2018-07-23T11:35:39.087Z,29.18
2018-07-23T11:38:07.911Z,29.20
2018-07-23T11:40:36.820Z,29.13
2018-07-23T11:43:06.320Z,29.12
2018-07-23T11:45:35.330Z,29.25
2018-07-23T11:48:04.264Z,29.33
2018-07-23T11:50:32.908Z,29.35
2018-07-23T11:53:01.756Z,29.34
2018-07-23T11:55:30.548Z,29.28
2018-07-23T11:57:59.287Z,29.26
2018-07-23T12:00:28.080Z,29.39
2018-07-23T12:02:57.203Z,29.88
2018-07-23T12:05:26.097Z,30.17
2018-07-23T12:07:55.006Z,30.69
2018-07-23T12:10:23.673Z,31.28
2018-07-23T12:12:52.548Z,31.72
2018-07-23T12:15:21.139Z,32.09
2018-07-23T12:17:50.333Z,32.32
2018-07-23T12:20:19.399Z,32.59
2018-07-23T12:22:48.137Z,32.97
2018-07-23T12:25:17.347Z,33.38
2018-07-23T12:27:46.257Z,33.54
2018-07-23T12:30:15.778Z,33.22
2018-07-23T12:32:44.476Z,33.39
2018-07-23T12:35:13.141Z,33.57
2018-07-23T12:37:42.008Z,33.46
2018-07-23T12:40:10.704Z,33.32
2018-07-23T12:42:39.769Z,33.38
2018-07-23T12:45:08.454Z,33.14
2018-07-23T12:47:37.684Z,33.25
2018-07-23T12:50:07.358Z,33.62
2018-07-23T12:52:36.137Z,34.11
2018-07-23T12:55:04.948Z,34.21
2018-07-23T12:57:34.257Z,33.70
2018-07-23T13:00:03.035Z,32.90
2018-07-23T13:02:31.672Z,32.52
2018-07-23T13:05:00.492Z,32.66
2018-07-23T13:07:29.458Z,32.96
2018-07-23T13:09:58.527Z,32.63
2018-07-23T13:12:27.821Z,32.44
2018-07-23T13:14:56.942Z,32.07
2018-07-23T13:17:25.568Z,31.86
2018-07-23T13:19:54.277Z,32.05
2018-07-23T13:22:23.520Z,32.17
2018-07-23T13:24:52.624Z,32.37
2018-07-23T13:27:21.958Z,32.76
2018-07-23T13:29:50.992Z,33.31
2018-07-23T13:32:20.319Z,33.84
2018-07-23T13:34:49.053Z,34.40
2018-07-23T13:37:18.022Z,34.47
2018-07-23T13:39:47.052Z,34.81
2018-07-23T13:42:15.852Z,35.00
2018-07-23T13:44:44.457Z,35.38
2018-07-23T13:47:13.200Z,34.89
2018-07-23T13:49:44.956Z,34.09
2018-07-23T13:52:14.980Z,33.38
2018-07-23T13:54:46.344Z,33.46
2018-07-23T13:57:15.658Z,34.34
2018-07-23T13:59:44.892Z,34.05
2018-07-23T14:02:13.665Z,33.48
2018-07-23T14:04:42.721Z,32.91
2018-07-23T14:07:12.059Z,33.20
2018-07-23T14:09:40.985Z,32.95
2018-07-23T14:12:10.016Z,32.82
2018-07-23T14:14:38.832Z,33.37
2018-07-23T14:17:07.632Z,33.59
2018-07-23T14:19:37.047Z,34.90
2018-07-23T14:22:08.762Z,36.24
2018-07-23T14:24:38.021Z,37.69
2018-07-23T14:27:06.929Z,38.45
2018-07-23T14:29:36.036Z,37.63
2018-07-23T14:32:05.132Z,36.53
2018-07-23T14:34:34.147Z,35.30
2018-07-23T14:37:03.892Z,34.64
2018-07-23T14:39:33.500Z,34.13
2018-07-23T14:42:02.739Z,33.54
2018-07-23T14:44:31.426Z,33.56
2018-07-23T14:47:00.630Z,35.39
2018-07-23T14:49:29.709Z,35.70
2018-07-23T14:51:58.829Z,34.90
2018-07-23T14:54:28.245Z,33.91
2018-07-23T14:56:57.117Z,33.28
2018-07-23T14:59:26.662Z,32.82
2018-07-23T15:01:56.635Z,32.63
2018-07-23T15:04:25.699Z,33.07
2018-07-23T15:06:54.795Z,32.90
2018-07-23T15:09:23.855Z,32.48
2018-07-23T15:11:52.722Z,32.05
2018-07-23T15:14:22.162Z,31.81
2018-07-23T15:16:51.806Z,31.63
2018-07-23T15:19:23.091Z,31.53
2018-07-23T15:21:52.293Z,31.41
2018-07-23T15:24:21.273Z,31.34
2018-07-23T15:26:50.962Z,31.24
2018-07-23T15:29:20.281Z,31.18
2018-07-23T15:31:49.395Z,31.19
2018-07-23T15:34:19.256Z,31.24
2018-07-23T15:36:48.486Z,31.55
2018-07-23T15:39:17.425Z,31.58
2018-07-23T15:41:47.181Z,31.57
2018-07-23T15:44:16.134Z,31.56
2018-07-23T15:46:45.281Z,32.35
2018-07-23T15:49:13.929Z,34.40
2018-07-23T15:51:42.959Z,36.09
2018-07-23T15:54:11.670Z,37.43
2018-07-23T15:56:40.570Z,38.34
2018-07-23T15:59:09.606Z,39.45
2018-07-23T16:01:38.464Z,40.28
2018-07-23T16:04:07.541Z,41.00
2018-07-23T16:06:42.888Z,40.82
2018-07-23T16:09:14.215Z,40.84
2018-07-23T16:11:43.989Z,41.05
2018-07-23T16:14:13.039Z,40.73
2018-07-23T16:16:41.888Z,39.96
2018-07-23T16:19:10.683Z,40.30
2018-07-23T16:21:39.521Z,40.89
2018-07-23T16:24:08.322Z,41.02
2018-07-23T16:26:37.078Z,41.23
2018-07-23T16:29:06.640Z,41.54
2018-07-23T16:31:35.403Z,41.54
2018-07-23T16:34:04.057Z,41.46
2018-07-23T16:36:32.926Z,41.60
2018-07-23T16:39:01.577Z,41.53
2018-07-23T16:41:30.461Z,40.78
2018-07-23T16:43:59.048Z,40.73
2018-07-23T16:46:27.673Z,40.56
2018-07-23T16:48:56.433Z,40.20
2018-07-23T16:51:25.257Z,40.00
2018-07-23T16:53:54.200Z,39.18
2018-07-23T16:56:22.940Z,38.01
2018-07-23T16:58:51.782Z,36.89
2018-07-23T17:01:21.154Z,35.79
2018-07-23T17:03:49.612Z,34.85
2018-07-23T17:06:18.147Z,34.33
2018-07-23T17:08:46.584Z,33.90
2018-07-23T17:11:15.147Z,33.51
2018-07-23T17:13:47.134Z,33.16
2018-07-23T17:16:16.332Z,32.88
2018-07-23T17:18:50.337Z,32.41
2018-07-23T17:21:20.393Z,32.15
2018-07-23T17:23:49.158Z,32.01
2018-07-23T17:26:18.004Z,31.86
2018-07-23T17:28:46.736Z,31.74
2018-07-23T17:31:15.360Z,31.67
2018-07-23T17:33:44.183Z,31.53
2018-07-23T17:36:12.899Z,31.47
2018-07-23T17:38:41.540Z,31.31
2018-07-23T17:41:10.472Z,31.19
2018-07-23T17:43:39.194Z,31.12
2018-07-23T17:46:08.403Z,31.10
2018-07-23T18:08:47.271Z,30.41
2018-07-23T18:11:16.703Z,30.30
2018-07-23T18:13:46.553Z,30.21
2018-07-23T18:16:15.694Z,30.14
2018-07-23T18:18:45.599Z,30.08
2018-07-23T18:21:15.573Z,30.02
2018-07-23T18:23:44.538Z,29.96
2018-07-23T18:26:13.138Z,29.93
2018-07-23T18:28:42.502Z,29.91
2018-07-23T18:31:11.334Z,29.90
2018-07-23T18:33:39.996Z,29.84
2018-07-23T18:36:08.929Z,29.79
2018-07-23T18:38:38.934Z,29.68
2018-07-23T18:41:07.876Z,29.59
2018-07-23T18:43:37.431Z,29.53
2018-07-23T18:46:06.687Z,29.50
2018-07-23T18:49:45.763Z,29.44
2018-07-23T18:52:15.257Z,29.32
2018-07-23T18:54:45.403Z,29.23
2018-07-23T18:57:14.195Z,29.15
2018-07-23T18:59:42.939Z,29.06
2018-07-23T19:02:13.017Z,28.96
2018-07-23T19:04:41.625Z,28.86
2018-07-23T19:07:10.428Z,28.77
2018-07-23T19:09:39.262Z,28.69
2018-07-23T19:12:08.967Z,28.60
2018-07-23T19:14:37.670Z,28.49
2018-07-23T19:17:07.919Z,28.40
2018-07-23T19:19:36.979Z,28.32
2018-07-23T19:22:05.995Z,28.22
2018-07-23T19:24:38.563Z,28.13
2018-07-23T19:27:07.272Z,28.02
2018-07-23T19:29:36.635Z,27.93
2018-07-23T19:32:05.502Z,27.84
2018-07-23T19:34:34.729Z,27.76
2018-07-23T19:37:04.114Z,27.69
2018-07-23T19:39:34.640Z,27.60
2018-07-23T19:42:03.484Z,27.50
2018-07-23T19:44:32.627Z,27.42
2018-07-23T19:47:01.557Z,27.33
2018-07-23T19:49:30.459Z,27.24
2018-07-23T19:51:59.239Z,27.16
2018-07-23T19:54:27.945Z,27.07
2018-07-23T19:56:56.646Z,26.98
2018-07-23T19:59:25.426Z,26.92
2018-07-23T20:01:54.098Z,26.87
2018-07-23T20:04:23.127Z,26.79
2018-07-23T20:06:52.044Z,26.74
2018-07-23T20:09:20.827Z,26.68
2018-07-23T20:11:49.323Z,26.60
2018-07-23T20:14:18.100Z,26.54
2018-07-23T20:16:46.724Z,26.49
2018-07-23T20:19:15.251Z,26.42
2018-07-23T20:21:43.729Z,26.38
2018-07-23T20:24:12.237Z,26.33
2018-07-23T20:26:40.754Z,26.29
2018-07-23T20:29:09.376Z,26.22
2018-07-23T20:31:37.986Z,26.18
2018-07-23T20:34:06.708Z,26.14
2018-07-23T20:36:35.342Z,26.09
2018-07-23T20:39:04.278Z,26.04
2018-07-23T20:41:32.958Z,25.99
2018-07-23T20:44:01.817Z,25.94
2018-07-23T20:46:30.335Z,25.92
2018-07-23T20:48:58.829Z,25.88
2018-07-23T20:51:27.563Z,25.84
2018-07-23T20:53:56.112Z,25.79
2018-07-23T20:56:24.616Z,25.75
2018-07-23T20:58:53.121Z,25.70
2018-07-23T21:01:21.701Z,25.68
2018-07-23T21:03:50.546Z,25.66
2018-07-23T21:06:19.371Z,25.62
2018-07-23T21:08:48.065Z,25.60
2018-07-23T21:11:16.593Z,25.57
2018-07-23T21:13:45.107Z,25.54
2018-07-23T21:16:13.572Z,25.49
2018-07-23T21:18:42.167Z,25.44
2018-07-23T21:21:10.637Z,25.38
2018-07-23T21:23:39.538Z,25.34
2018-07-23T21:26:08.176Z,25.29
2018-07-23T21:28:36.829Z,25.26
2018-07-23T21:31:05.429Z,25.23
2018-07-23T21:33:34.137Z,25.19
2018-07-23T21:36:02.618Z,25.15
2018-07-23T21:38:31.103Z,25.11
2018-07-23T21:40:59.865Z,25.08
2018-07-23T21:43:28.312Z,25.03
2018-07-23T21:45:56.808Z,25.00
2018-07-23T21:48:25.635Z,24.97
2018-07-23T21:50:54.232Z,24.93
2018-07-23T21:53:22.938Z,24.89
2018-07-23T21:55:51.446Z,24.84
2018-07-23T21:58:19.912Z,24.79
2018-07-23T22:00:48.592Z,24.75
2018-07-23T22:03:17.090Z,24.72
2018-07-23T22:05:45.615Z,24.68
2018-07-23T22:08:14.153Z,24.65
2018-07-23T22:10:43.453Z,24.61
2018-07-23T22:13:12.087Z,24.57
2018-07-23T22:15:40.774Z,24.55
2018-07-23T22:18:09.265Z,24.50
2018-07-23T22:20:37.723Z,24.47
2018-07-23T22:23:06.500Z,24.43
2018-07-23T22:25:34.919Z,24.41
2018-07-23T22:28:03.313Z,24.38
2018-07-23T22:30:31.849Z,24.33
2018-07-23T22:33:00.368Z,24.31
2018-07-23T22:35:28.828Z,24.27
2018-07-23T22:37:57.304Z,24.25
2018-07-23T22:40:25.900Z,24.20
2018-07-23T22:42:54.374Z,24.18
2018-07-23T22:45:23.081Z,24.12
2018-07-23T22:47:51.592Z,24.10
2018-07-23T22:50:20.160Z,24.09
2018-07-23T22:52:48.609Z,24.07
2018-07-23T22:55:17.196Z,24.03
2018-07-23T22:57:45.645Z,24.00
2018-07-23T23:00:14.086Z,23.97
2018-07-23T23:02:43.394Z,23.93
2018-07-23T23:05:12.321Z,23.90
2018-07-23T23:07:41.169Z,23.87
2018-07-23T23:10:09.632Z,23.85
2018-07-23T23:12:38.048Z,23.82
2018-07-23T23:15:06.638Z,23.80
2018-07-23T23:17:35.231Z,23.76
2018-07-23T23:20:03.728Z,23.72
2018-07-23T23:22:32.316Z,23.71
2018-07-23T23:25:07.312Z,23.68
2018-07-23T23:27:35.855Z,23.66
2018-07-23T23:30:04.356Z,23.63
2018-07-23T23:32:32.819Z,23.60
2018-07-23T23:35:01.336Z,23.58
2018-07-23T23:37:29.939Z,23.56
2018-07-23T23:39:58.349Z,23.54
2018-07-23T23:42:26.799Z,23.51
2018-07-23T23:44:55.315Z,23.49
2018-07-23T23:47:23.960Z,23.46
2018-07-23T23:49:52.432Z,23.45
2018-07-23T23:52:21.098Z,23.40
2018-07-23T23:54:49.493Z,23.39
2018-07-23T23:57:18.170Z,23.37
2018-07-23T23:59:46.696Z,23.33
